GER24M EDFM-LFPB
Flight info
| Callsign | GER24M |
|---|---|
| Flight time | N/A |
| Altitude | 10000 |
| Route | OLIVI6C OLIVI T847 SIPVU/N0424F240 Z656 IDOVI/N0435F260 Z104 ODVUX/N0424F240 Z104 AGBUL T894 BITBU/N0448F320 Y180 DIK/N0391F180 Y180 TILVI Q763 RENSA |
| Aircraft | C25C/M-SDE2E3FGHRWXY/LB1 |
Departure
| Time | N/A |
|---|---|
| Airport | Mannheim-City Airport (EDFM) |
Arrival
| Time | 2026-04-21 18:22 |
|---|---|
| Airport | Paris-Le Bourget International Airport (LFPB) |
| Time | Latitude | Longitude | Altitude | Speed | Heading |
|---|---|---|---|---|---|
| 2026-04-21 17:51 | 49.59949 | 5.37863 | 32177 ft | 360 kts | 266° |
| 2026-04-21 17:51 | 49.59479 | 5.28199 | 32180 ft | 362 kts | 270° |
| 2026-04-21 17:51 | 49.54907 | 4.97397 | 32173 ft | 373 kts | 261° |
| 2026-04-21 17:52 | 49.49396 | 4.66815 | 32166 ft | 372 kts | 261° |
| 2026-04-21 17:52 | 49.43826 | 4.36350 | 32154 ft | 369 kts | 262° |
| 2026-04-21 17:53 | 49.40108 | 4.16301 | 32152 ft | 367 kts | 262° |
| 2026-04-21 17:53 | 49.39414 | 4.12578 | 31825 ft | 370 kts | 262° |
| 2026-04-21 17:53 | 49.38705 | 4.08797 | 31269 ft | 366 kts | 262° |
| 2026-04-21 17:54 | 49.38004 | 4.05062 | 30725 ft | 362 kts | 263° |
| 2026-04-21 17:54 | 49.37306 | 4.01364 | 30179 ft | 359 kts | 263° |
| 2026-04-21 17:54 | 49.36519 | 3.97726 | 29549 ft | 362 kts | 258° |
| 2026-04-21 17:54 | 49.35118 | 3.93065 | 28724 ft | 366 kts | 252° |
| 2026-04-21 17:55 | 49.34327 | 3.90731 | 28318 ft | 364 kts | 252° |
| 2026-04-21 17:55 | 49.33189 | 3.87276 | 27726 ft | 363 kts | 252° |
| 2026-04-21 17:55 | 49.32065 | 3.83871 | 27155 ft | 362 kts | 252° |
| 2026-04-21 17:55 | 49.30918 | 3.80430 | 26588 ft | 363 kts | 251° |
| 2026-04-21 17:56 | 49.29768 | 3.76995 | 26031 ft | 362 kts | 252° |
| 2026-04-21 17:56 | 49.28619 | 3.73562 | 25484 ft | 362 kts | 251° |
| 2026-04-21 17:56 | 49.27545 | 3.70098 | 24935 ft | 355 kts | 258° |
| 2026-04-21 17:56 | 49.27016 | 3.66479 | 24421 ft | 345 kts | 270° |
| 2026-04-21 17:57 | 49.26994 | 3.62870 | 23904 ft | 337 kts | 279° |
| 2026-04-21 17:57 | 49.27075 | 3.59318 | 23330 ft | 339 kts | 277° |
| 2026-04-21 17:57 | 49.27154 | 3.55719 | 22728 ft | 338 kts | 278° |
| 2026-04-21 17:57 | 49.27236 | 3.52127 | 22134 ft | 337 kts | 277° |
| 2026-04-21 17:58 | 49.27321 | 3.48544 | 21551 ft | 337 kts | 277° |
| 2026-04-21 17:58 | 49.27398 | 3.44963 | 20982 ft | 337 kts | 277° |
| 2026-04-21 17:58 | 49.27476 | 3.41373 | 20423 ft | 338 kts | 276° |
| 2026-04-21 17:58 | 49.27555 | 3.37770 | 19869 ft | 339 kts | 276° |
| 2026-04-21 17:59 | 49.27630 | 3.34149 | 19336 ft | 341 kts | 275° |
| 2026-04-21 17:59 | 49.27708 | 3.30505 | 18806 ft | 343 kts | 275° |
| 2026-04-21 17:59 | 49.27782 | 3.26889 | 18268 ft | 345 kts | 274° |
| 2026-04-21 17:59 | 49.27855 | 3.23206 | 17670 ft | 347 kts | 274° |
| 2026-04-21 18:00 | 49.27929 | 3.19504 | 17087 ft | 348 kts | 274° |
| 2026-04-21 18:00 | 49.28000 | 3.15796 | 16515 ft | 349 kts | 274° |
| 2026-04-21 18:00 | 49.28074 | 3.12116 | 16055 ft | 344 kts | 274° |
| 2026-04-21 18:00 | 49.28141 | 3.08464 | 15594 ft | 342 kts | 274° |
| 2026-04-21 18:01 | 49.28209 | 3.04826 | 15201 ft | 340 kts | 274° |
| 2026-04-21 18:01 | 49.28274 | 3.01225 | 14855 ft | 337 kts | 274° |
| 2026-04-21 18:01 | 49.28339 | 2.97648 | 14522 ft | 335 kts | 274° |
| 2026-04-21 18:01 | 49.28403 | 2.94127 | 14236 ft | 335 kts | 274° |
| 2026-04-21 18:02 | 49.28464 | 2.90564 | 13944 ft | 335 kts | 274° |
| 2026-04-21 18:02 | 49.28525 | 2.87004 | 13626 ft | 335 kts | 274° |
| 2026-04-21 18:02 | 49.28585 | 2.83436 | 13303 ft | 335 kts | 274° |
| 2026-04-21 18:02 | 49.28645 | 2.79860 | 12980 ft | 336 kts | 274° |
| 2026-04-21 18:03 | 49.28701 | 2.76282 | 12664 ft | 336 kts | 274° |
| 2026-04-21 18:03 | 49.28757 | 2.72763 | 12360 ft | 336 kts | 274° |
| 2026-04-21 18:03 | 49.28893 | 2.64007 | 11614 ft | 337 kts | 274° |
| 2026-04-21 18:03 | 49.29095 | 2.49872 | 10437 ft | 335 kts | 273° |
| 2026-04-21 18:04 | 49.29181 | 2.43415 | 10078 ft | 329 kts | 274° |
| 2026-04-21 18:04 | 49.29227 | 2.39947 | 10032 ft | 320 kts | 273° |
| 2026-04-21 18:04 | 49.29339 | 2.30963 | 10011 ft | 295 kts | 274° |
| 2026-04-21 18:04 | 49.29421 | 2.24018 | 10009 ft | 291 kts | 273° |
| 2026-04-21 18:05 | 49.29557 | 2.11581 | 10006 ft | 293 kts | 273° |
| 2026-04-21 18:05 | 49.29681 | 1.99123 | 10010 ft | 292 kts | 272° |
| 2026-04-21 18:05 | 49.29790 | 1.86688 | 10027 ft | 292 kts | 274° |
| 2026-04-21 18:05 | 49.29848 | 1.79368 | 10016 ft | 293 kts | 272° |
| 2026-04-21 18:06 | 49.29872 | 1.76291 | 10020 ft | 293 kts | 272° |
| 2026-04-21 18:06 | 49.29717 | 1.73188 | 10014 ft | 296 kts | 254° |
| 2026-04-21 18:06 | 49.28590 | 1.70551 | 9770 ft | 305 kts | 222° |
| 2026-04-21 18:06 | 49.26725 | 1.69075 | 9325 ft | 303 kts | 192° |
| 2026-04-21 18:07 | 49.24667 | 1.68524 | 8905 ft | 297 kts | 185° |
| 2026-04-21 18:07 | 49.22646 | 1.68151 | 8498 ft | 288 kts | 183° |
| 2026-04-21 18:07 | 49.20686 | 1.67823 | 8080 ft | 279 kts | 182° |
| 2026-04-21 18:07 | 49.18794 | 1.67500 | 7712 ft | 268 kts | 182° |
| 2026-04-21 18:08 | 49.16975 | 1.67172 | 7410 ft | 259 kts | 182° |
| 2026-04-21 18:08 | 49.15233 | 1.66831 | 7111 ft | 253 kts | 182° |
| 2026-04-21 18:08 | 49.13501 | 1.66459 | 6829 ft | 250 kts | 182° |
| 2026-04-21 18:08 | 49.11769 | 1.66066 | 6626 ft | 254 kts | 182° |
| 2026-04-21 18:09 | 49.10021 | 1.65663 | 6418 ft | 255 kts | 182° |
| 2026-04-21 18:09 | 49.08270 | 1.65263 | 6206 ft | 254 kts | 182° |
| 2026-04-21 18:09 | 49.06519 | 1.64864 | 6005 ft | 254 kts | 182° |
| 2026-04-21 18:09 | 49.04768 | 1.64463 | 5789 ft | 255 kts | 182° |
| 2026-04-21 18:10 | 49.03016 | 1.64058 | 5583 ft | 255 kts | 182° |
| 2026-04-21 18:10 | 49.01264 | 1.63695 | 5378 ft | 251 kts | 176° |
| 2026-04-21 18:10 | 48.99697 | 1.64425 | 5160 ft | 236 kts | 138° |
| 2026-04-21 18:10 | 48.98860 | 1.66427 | 5059 ft | 222 kts | 99° |
| 2026-04-21 18:11 | 48.98914 | 1.68723 | 5038 ft | 215 kts | 85° |
| 2026-04-21 18:11 | 48.98966 | 1.70974 | 5017 ft | 211 kts | 90° |
| 2026-04-21 18:11 | 48.98855 | 1.73185 | 5012 ft | 210 kts | 98° |
| 2026-04-21 18:11 | 48.98468 | 1.75338 | 5014 ft | 212 kts | 106° |
| 2026-04-21 18:12 | 48.97933 | 1.77439 | 5009 ft | 213 kts | 108° |
| 2026-04-21 18:12 | 48.97404 | 1.79550 | 5014 ft | 214 kts | 108° |
| 2026-04-21 18:12 | 48.96887 | 1.81672 | 5015 ft | 214 kts | 107° |
| 2026-04-21 18:12 | 48.96376 | 1.83793 | 5019 ft | 214 kts | 107° |
| 2026-04-21 18:13 | 48.95870 | 1.85888 | 5016 ft | 214 kts | 107° |
| 2026-04-21 18:13 | 48.95355 | 1.88014 | 5021 ft | 214 kts | 107° |
| 2026-04-21 18:13 | 48.94838 | 1.90144 | 5012 ft | 216 kts | 107° |
| 2026-04-21 18:13 | 48.94321 | 1.92280 | 5015 ft | 215 kts | 107° |
| 2026-04-21 18:14 | 48.93278 | 1.96563 | 5016 ft | 216 kts | 107° |
| 2026-04-21 18:14 | 48.92755 | 1.98703 | 5016 ft | 215 kts | 107° |
| 2026-04-21 18:14 | 48.92244 | 2.00811 | 5010 ft | 210 kts | 107° |
| 2026-04-21 18:15 | 48.91751 | 2.02831 | 4990 ft | 203 kts | 107° |
| 2026-04-21 18:15 | 48.91263 | 2.04810 | 4938 ft | 199 kts | 107° |
| 2026-04-21 18:15 | 48.90784 | 2.06781 | 4728 ft | 197 kts | 107° |
| 2026-04-21 18:15 | 48.90310 | 2.08731 | 4516 ft | 196 kts | 107° |
| 2026-04-21 18:16 | 48.89838 | 2.10650 | 4306 ft | 192 kts | 107° |
| 2026-04-21 18:16 | 48.89375 | 2.12537 | 4088 ft | 189 kts | 107° |
| 2026-04-21 18:16 | 48.89149 | 2.14409 | 4036 ft | 175 kts | 82° |
| 2026-04-21 18:16 | 48.89501 | 2.16159 | 3872 ft | 173 kts | 72° |
| 2026-04-21 18:17 | 48.89919 | 2.17821 | 3656 ft | 170 kts | 69° |
| 2026-04-21 18:17 | 48.90364 | 2.19483 | 3431 ft | 170 kts | 69° |
| 2026-04-21 18:17 | 48.90805 | 2.21134 | 3213 ft | 167 kts | 69° |
| 2026-04-21 18:17 | 48.91240 | 2.22754 | 2978 ft | 164 kts | 69° |
| 2026-04-21 18:18 | 48.91664 | 2.24344 | 2759 ft | 161 kts | 69° |
| 2026-04-21 18:18 | 48.92085 | 2.25919 | 2540 ft | 157 kts | 69° |
| 2026-04-21 18:18 | 48.92474 | 2.27368 | 2323 ft | 140 kts | 69° |
| 2026-04-21 18:18 | 48.92803 | 2.28600 | 2154 ft | 118 kts | 69° |
| 2026-04-21 18:19 | 48.93108 | 2.29727 | 2039 ft | 112 kts | 70° |
| 2026-04-21 18:19 | 48.93398 | 2.30809 | 1912 ft | 111 kts | 70° |
| 2026-04-21 18:19 | 48.93704 | 2.31882 | 1725 ft | 112 kts | 69° |
| 2026-04-21 18:19 | 48.94002 | 2.32982 | 1555 ft | 114 kts | 69° |
| 2026-04-21 18:20 | 48.94297 | 2.34096 | 1376 ft | 112 kts | 69° |
| 2026-04-21 18:20 | 48.94594 | 2.35183 | 1231 ft | 111 kts | 69° |
| 2026-04-21 18:20 | 48.94885 | 2.36255 | 1114 ft | 109 kts | 69° |
| 2026-04-21 18:20 | 48.95167 | 2.37319 | 982 ft | 108 kts | 68° |
| 2026-04-21 18:21 | 48.95439 | 2.38368 | 844 ft | 106 kts | 68° |
| 2026-04-21 18:21 | 48.95705 | 2.39404 | 684 ft | 103 kts | 68° |
| 2026-04-21 18:21 | 48.95954 | 2.40372 | 478 ft | 93 kts | 70° |
| 2026-04-21 18:21 | 48.96193 | 2.41300 | 322 ft | 94 kts | 68° |
| 2026-04-21 18:22 | 48.96423 | 2.42164 | 195 ft | 84 kts | 68° |
| 2026-04-21 18:22 | 48.96625 | 2.42916 | 143 ft | 67 kts | 69° |
| 2026-04-21 18:22 | 48.96748 | 2.43397 | 140 ft | 39 kts | 68° |
| 2026-04-21 18:22 | 48.96839 | 2.43739 | 139 ft | 31 kts | 68° |
| 2026-04-21 18:23 | 48.96911 | 2.44011 | 141 ft | 23 kts | 69° |
| 2026-04-21 18:23 | 48.96944 | 2.44193 | 140 ft | 13 kts | 99° |
| 2026-04-21 18:23 | 48.96925 | 2.44307 | 140 ft | 9 kts | 123° |
| 2026-04-21 18:23 | 48.96883 | 2.44368 | 141 ft | 8 kts | 146° |
| 2026-04-21 18:24 | 48.96830 | 2.44402 | 142 ft | 9 kts | 164° |
| 2026-04-21 18:24 | 48.96765 | 2.44433 | 143 ft | 10 kts | 163° |
| 2026-04-21 18:24 | 48.96690 | 2.44469 | 145 ft | 12 kts | 162° |
| 2026-04-21 18:24 | 48.96604 | 2.44508 | 146 ft | 14 kts | 163° |
| 2026-04-21 18:25 | 48.96511 | 2.44542 | 149 ft | 15 kts | 169° |
| 2026-04-21 18:25 | 48.96396 | 2.44541 | 146 ft | 18 kts | 189° |
| 2026-04-21 18:25 | 48.96286 | 2.44462 | 146 ft | 17 kts | 201° |
| 2026-04-21 18:25 | 48.96175 | 2.44389 | 145 ft | 18 kts | 204° |
| 2026-04-21 18:26 | 48.96074 | 2.44326 | 145 ft | 11 kts | 205° |
| 2026-04-21 18:26 | 48.96045 | 2.44236 | 145 ft | 10 kts | 267° |
| 2026-04-21 18:26 | 48.96039 | 2.44142 | 145 ft | 7 kts | 270° |
| 2026-04-21 18:26 | 48.96058 | 2.44117 | 145 ft | 0 kts | 29° |